createdAt,value
2023-05-19T00:00:58.358Z,500.00
2023-05-19T00:01:58.377Z,439.00
2023-05-19T00:02:58.406Z,400.00
2023-05-19T00:03:58.326Z,400.00
2023-05-19T00:04:58.312Z,400.00
2023-05-19T00:05:58.387Z,400.00
2023-05-19T00:06:58.294Z,404.00
2023-05-19T00:07:58.289Z,422.00
2023-05-19T00:08:58.274Z,449.00
2023-05-19T00:09:58.270Z,479.00
2023-05-19T00:10:58.274Z,500.00
2023-05-19T00:11:58.309Z,500.00
2023-05-19T00:12:58.266Z,500.00
2023-05-19T00:13:59.119Z,499.00
2023-05-19T00:14:58.234Z,501.00
2023-05-19T00:15:58.258Z,500.00
2023-05-19T00:16:58.223Z,505.00
2023-05-19T00:17:58.313Z,501.00
2023-05-19T00:18:58.240Z,506.00
2023-05-19T00:19:58.196Z,498.00
2023-05-19T00:20:58.200Z,503.00
2023-05-19T00:21:58.178Z,504.00
2023-05-19T00:22:58.179Z,501.00
2023-05-19T00:23:58.155Z,501.00
2023-05-19T00:24:58.136Z,500.00
2023-05-19T00:25:58.133Z,504.00
2023-05-19T00:26:58.108Z,500.00
2023-05-19T00:27:58.149Z,503.00
2023-05-19T00:28:58.130Z,500.00
2023-05-19T00:29:58.155Z,501.00
2023-05-19T00:30:58.161Z,502.00
2023-05-19T00:31:58.217Z,500.00
2023-05-19T00:32:58.217Z,501.00
2023-05-19T00:33:58.206Z,502.00
2023-05-19T00:34:58.227Z,501.00
2023-05-19T00:35:58.242Z,500.00
2023-05-19T00:36:58.250Z,500.00
2023-05-19T00:37:58.270Z,502.00
2023-05-19T00:38:58.296Z,504.00
2023-05-19T00:39:58.291Z,503.00
2023-05-19T00:40:58.317Z,502.00
2023-05-19T00:41:58.325Z,501.00
2023-05-19T00:42:58.344Z,501.00
2023-05-19T00:43:58.446Z,503.00
2023-05-19T00:44:58.371Z,503.00
2023-05-19T00:45:58.389Z,502.00
2023-05-19T00:46:58.488Z,501.00
2023-05-19T00:47:58.488Z,505.00
2023-05-19T00:48:58.443Z,504.00
2023-05-19T00:49:58.491Z,505.00
2023-05-19T00:50:58.494Z,503.00
2023-05-19T00:51:58.486Z,503.00
2023-05-19T00:52:58.511Z,500.00
2023-05-19T00:53:58.524Z,500.00
2023-05-19T00:54:58.522Z,506.00
2023-05-19T00:55:58.545Z,500.00
2023-05-19T00:56:58.562Z,503.00
2023-05-19T00:57:58.584Z,501.00
2023-05-19T00:58:58.605Z,500.00
2023-05-19T00:59:58.667Z,505.00
2023-05-19T01:00:58.704Z,501.00
2023-05-19T01:01:58.656Z,503.00
2023-05-19T01:02:58.747Z,503.00
2023-05-19T01:03:58.925Z,502.00
2023-05-19T01:04:58.685Z,505.00
2023-05-19T01:05:58.697Z,501.00
2023-05-19T01:06:58.712Z,505.00
2023-05-19T01:07:58.743Z,502.00
2023-05-19T01:08:58.738Z,501.00
2023-05-19T01:09:58.760Z,500.00
2023-05-19T01:10:58.760Z,500.00
2023-05-19T01:11:58.770Z,503.00
2023-05-19T01:12:58.790Z,502.00
2023-05-19T01:13:58.798Z,503.00
2023-05-19T01:14:58.822Z,501.00
2023-05-19T01:15:58.970Z,502.00
2023-05-19T01:16:58.925Z,505.00
2023-05-19T01:17:58.848Z,504.00
2023-05-19T01:18:58.883Z,501.00
2023-05-19T01:19:58.866Z,502.00
2023-05-19T01:20:58.881Z,502.00
2023-05-19T01:21:58.901Z,502.00
2023-05-19T01:22:58.904Z,504.00
2023-05-19T01:23:58.913Z,504.00
2023-05-19T01:24:58.934Z,502.00
2023-05-19T01:25:58.966Z,504.00
2023-05-19T01:26:58.954Z,504.00
2023-05-19T01:27:58.966Z,505.00
2023-05-19T01:28:58.984Z,504.00
2023-05-19T01:29:58.988Z,503.00
2023-05-19T01:30:59.004Z,503.00
2023-05-19T01:31:59.073Z,502.00
2023-05-19T01:32:59.092Z,502.00
2023-05-19T01:33:59.037Z,503.00
2023-05-19T01:34:59.045Z,500.00
2023-05-19T01:35:59.071Z,500.00
2023-05-19T01:36:59.066Z,502.00
2023-05-19T01:37:59.079Z,501.00
2023-05-19T01:38:59.084Z,503.00
2023-05-19T01:39:59.115Z,504.00
2023-05-19T01:40:59.122Z,505.00
2023-05-19T01:41:59.126Z,504.00
2023-05-19T01:42:59.133Z,506.00
2023-05-19T01:43:59.152Z,506.00
2023-05-19T01:44:59.163Z,505.00
2023-05-19T01:45:59.271Z,503.00
2023-05-19T01:46:59.195Z,509.00
2023-05-19T01:47:59.388Z,503.00
2023-05-19T01:48:59.218Z,501.00
2023-05-19T01:49:59.234Z,501.00
2023-05-19T01:50:59.285Z,505.00
2023-05-19T01:51:59.261Z,505.00
2023-05-19T01:52:59.279Z,501.00
2023-05-19T01:53:59.291Z,504.00
2023-05-19T01:54:59.302Z,502.00
2023-05-19T01:55:59.322Z,504.00
2023-05-19T01:56:59.323Z,503.00
2023-05-19T01:57:59.333Z,502.00
2023-05-19T01:58:59.335Z,500.00
2023-05-19T01:59:59.357Z,506.00
2023-05-19T02:00:59.426Z,507.00
2023-05-19T02:01:59.378Z,508.00
2023-05-19T02:02:59.433Z,506.00
2023-05-19T02:03:59.472Z,504.00
2023-05-19T02:04:59.420Z,505.00
2023-05-19T02:05:59.474Z,503.00
2023-05-19T02:06:59.450Z,506.00
2023-05-19T02:07:59.464Z,506.00
2023-05-19T02:08:59.481Z,506.00
2023-05-19T02:09:59.498Z,504.00
2023-05-19T02:10:59.515Z,503.00
2023-05-19T02:11:59.542Z,505.00
2023-05-19T02:12:59.530Z,503.00
2023-05-19T02:13:59.538Z,503.00
2023-05-19T02:14:59.553Z,506.00
2023-05-19T02:15:59.583Z,503.00
2023-05-19T02:16:59.570Z,502.00
2023-05-19T02:17:59.607Z,504.00
2023-05-19T02:18:59.690Z,503.00
2023-05-19T02:19:59.645Z,506.00
2023-05-19T02:20:59.626Z,502.00
2023-05-19T02:21:59.649Z,502.00
2023-05-19T02:22:59.656Z,505.00
2023-05-19T02:23:59.671Z,502.00
2023-05-19T02:24:59.709Z,504.00
2023-05-19T02:25:59.742Z,501.00
2023-05-19T02:26:59.719Z,503.00
2023-05-19T02:27:59.790Z,506.00
2023-05-19T02:28:59.744Z,503.00
2023-05-19T02:29:59.761Z,503.00
2023-05-19T02:30:59.808Z,503.00
2023-05-19T02:31:59.878Z,503.00
2023-05-19T02:32:59.848Z,503.00
2023-05-19T02:33:59.835Z,507.00
2023-05-19T02:34:59.849Z,502.00
2023-05-19T02:35:59.894Z,503.00
2023-05-19T02:36:59.892Z,503.00
2023-05-19T02:37:59.928Z,506.00
2023-05-19T02:38:59.918Z,502.00
2023-05-19T02:39:59.951Z,504.00
2023-05-19T02:40:59.953Z,503.00
2023-05-19T02:41:59.969Z,502.00
2023-05-19T02:42:59.982Z,504.00
2023-05-19T02:44:00.018Z,509.00
2023-05-19T02:45:00.029Z,505.00
2023-05-19T02:46:00.275Z,502.00
2023-05-19T02:47:00.053Z,504.00
2023-05-19T02:48:00.140Z,504.00
2023-05-19T02:49:00.094Z,502.00
2023-05-19T02:50:00.177Z,502.00
2023-05-19T02:51:00.140Z,503.00
2023-05-19T02:52:00.153Z,505.00
2023-05-19T02:53:00.196Z,506.00
2023-05-19T02:54:00.168Z,505.00
2023-05-19T02:55:00.166Z,504.00
2023-05-19T02:56:00.182Z,502.00
2023-05-19T02:57:00.200Z,508.00
2023-05-19T02:58:00.222Z,506.00
2023-05-19T02:59:00.230Z,504.00
2023-05-19T03:00:00.249Z,504.00
2023-05-19T03:01:00.252Z,502.00
2023-05-19T03:02:00.348Z,505.00
2023-05-19T03:03:00.446Z,508.00
2023-05-19T03:04:00.458Z,507.00
2023-05-19T03:05:00.319Z,506.00
2023-05-19T03:06:00.344Z,510.00
2023-05-19T03:07:00.356Z,503.00
2023-05-19T03:08:00.431Z,503.00
2023-05-19T03:09:00.408Z,505.00
2023-05-19T03:10:00.417Z,507.00
2023-05-19T03:11:00.457Z,505.00
2023-05-19T03:12:00.441Z,504.00
2023-05-19T03:13:00.455Z,503.00
2023-05-19T03:14:00.532Z,506.00
2023-05-19T03:15:00.500Z,506.00
2023-05-19T03:16:00.526Z,509.00
2023-05-19T03:17:00.558Z,506.00
2023-05-19T03:18:00.603Z,503.00
2023-05-19T03:19:00.595Z,502.00
2023-05-19T03:20:00.563Z,504.00
2023-05-19T03:21:00.600Z,503.00
2023-05-19T03:22:00.593Z,503.00
2023-05-19T03:23:00.605Z,502.00
2023-05-19T03:24:00.647Z,507.00
2023-05-19T03:25:00.635Z,504.00
2023-05-19T03:26:00.639Z,507.00
2023-05-19T03:27:00.660Z,506.00
2023-05-19T03:28:00.674Z,506.00
2023-05-19T03:29:00.688Z,510.00
2023-05-19T03:30:00.688Z,511.00
2023-05-19T03:31:00.758Z,508.00
2023-05-19T03:32:00.749Z,506.00
2023-05-19T03:33:00.794Z,503.00
2023-05-19T03:34:00.726Z,501.00
2023-05-19T03:35:00.727Z,506.00
2023-05-19T03:36:00.770Z,503.00
2023-05-19T03:37:00.734Z,501.00
2023-05-19T03:38:00.737Z,500.00
2023-05-19T03:39:00.748Z,502.00
2023-05-19T03:40:00.811Z,505.00
2023-05-19T03:41:00.786Z,503.00
2023-05-19T03:42:00.767Z,505.00
2023-05-19T03:43:00.774Z,500.00
2023-05-19T03:44:00.767Z,501.00
2023-05-19T03:45:00.772Z,507.00
2023-05-19T03:46:00.858Z,504.00
2023-05-19T03:47:00.759Z,504.00
2023-05-19T03:48:00.787Z,505.00
2023-05-19T03:49:00.757Z,504.00
2023-05-19T03:50:00.769Z,505.00
2023-05-19T03:51:00.768Z,501.00
2023-05-19T03:52:00.738Z,506.00
2023-05-19T03:53:00.734Z,502.00
2023-05-19T03:54:00.730Z,503.00
2023-05-19T03:55:00.719Z,503.00
2023-05-19T03:56:00.726Z,503.00
2023-05-19T03:57:00.703Z,506.00
2023-05-19T03:58:00.694Z,502.00
2023-05-19T03:59:00.697Z,502.00
2023-05-19T04:00:00.692Z,504.00
2023-05-19T04:01:00.687Z,507.00
2023-05-19T04:02:00.718Z,506.00
2023-05-19T04:03:00.893Z,503.00
2023-05-19T04:04:00.698Z,504.00
2023-05-19T04:05:00.653Z,503.00
2023-05-19T04:06:00.698Z,502.00
2023-05-19T04:07:00.653Z,505.00
2023-05-19T04:08:00.639Z,503.00
2023-05-19T04:09:00.623Z,503.00
2023-05-19T04:10:00.617Z,501.00
2023-05-19T04:11:00.617Z,505.00
2023-05-19T04:12:00.621Z,503.00
2023-05-19T04:13:00.601Z,502.00
2023-05-19T04:14:00.591Z,504.00
2023-05-19T04:15:00.615Z,506.00
2023-05-19T04:16:00.688Z,503.00
2023-05-19T04:17:00.551Z,505.00
2023-05-19T04:18:00.597Z,501.00
2023-05-19T04:19:00.643Z,502.00
2023-05-19T04:20:00.521Z,503.00
2023-05-19T04:21:00.537Z,501.00
2023-05-19T04:22:00.504Z,502.00
2023-05-19T04:23:00.505Z,502.00
2023-05-19T04:24:00.512Z,505.00
2023-05-19T04:25:00.535Z,503.00
2023-05-19T04:26:00.544Z,506.00
2023-05-19T04:27:00.564Z,505.00
2023-05-19T04:28:00.637Z,506.00
2023-05-19T04:29:00.627Z,505.00
2023-05-19T04:30:00.672Z,507.00
2023-05-19T04:31:00.738Z,508.00
2023-05-19T04:32:00.723Z,504.00
2023-05-19T04:33:00.773Z,505.00
2023-05-19T04:34:00.746Z,506.00
2023-05-19T04:35:00.778Z,506.00
2023-05-19T04:36:00.826Z,504.00
2023-05-19T04:37:00.833Z,502.00
2023-05-19T04:38:00.846Z,504.00
2023-05-19T04:39:00.894Z,508.00
2023-05-19T04:40:00.939Z,506.00
2023-05-19T04:41:01.005Z,505.00
2023-05-19T04:42:00.973Z,506.00
2023-05-19T04:43:00.974Z,506.00
2023-05-19T04:44:01.019Z,505.00
2023-05-19T04:45:00.978Z,503.00
2023-05-19T04:46:01.002Z,506.00
2023-05-19T04:47:01.114Z,505.00
2023-05-19T04:48:01.086Z,504.00
2023-05-19T04:49:01.101Z,503.00
2023-05-19T04:50:01.133Z,504.00
2023-05-19T04:51:01.135Z,504.00
2023-05-19T04:52:01.130Z,505.00
2023-05-19T04:53:01.155Z,503.00
2023-05-19T04:54:01.165Z,501.00
2023-05-19T04:55:01.162Z,501.00
2023-05-19T04:56:01.216Z,501.00
2023-05-19T04:57:01.170Z,505.00
2023-05-19T04:58:01.171Z,500.00
2023-05-19T04:59:01.202Z,501.00
2023-05-19T05:00:01.237Z,503.00
2023-05-19T05:01:01.307Z,505.00
2023-05-19T05:02:01.368Z,502.00
2023-05-19T05:03:01.322Z,506.00
2023-05-19T05:04:01.322Z,503.00
2023-05-19T05:05:01.258Z,503.00
2023-05-19T05:06:01.288Z,500.00
2023-05-19T05:07:01.225Z,505.00
2023-05-19T05:08:01.222Z,501.00
2023-05-19T05:09:01.195Z,504.00
2023-05-19T05:10:01.183Z,504.00
2023-05-19T05:11:01.172Z,500.00
2023-05-19T05:12:01.169Z,501.00
2023-05-19T05:13:01.173Z,501.00
2023-05-19T05:14:01.177Z,501.00
2023-05-19T05:15:01.178Z,502.00
2023-05-19T05:16:01.213Z,500.00
2023-05-19T05:17:01.152Z,500.00
2023-05-19T05:18:01.193Z,501.00
2023-05-19T05:19:01.171Z,500.00
2023-05-19T05:20:01.191Z,502.00
2023-05-19T05:21:01.177Z,500.00
2023-05-19T05:22:01.191Z,501.00
2023-05-19T05:23:01.208Z,500.00
2023-05-19T05:24:01.205Z,500.00
2023-05-19T05:25:01.209Z,500.00
2023-05-19T05:26:01.223Z,505.00
2023-05-19T05:27:01.236Z,500.00
2023-05-19T05:28:01.268Z,502.00
2023-05-19T05:29:01.285Z,504.00
2023-05-19T05:30:01.256Z,503.00
2023-05-19T05:31:01.248Z,500.00
2023-05-19T05:32:01.301Z,505.00
2023-05-19T05:33:01.310Z,501.00
2023-05-19T05:34:01.234Z,505.00
2023-05-19T05:35:01.209Z,503.00
2023-05-19T05:36:01.209Z,502.00
2023-05-19T05:37:01.200Z,501.00
2023-05-19T05:38:01.193Z,505.00
2023-05-19T05:39:01.180Z,500.00
2023-05-19T05:40:01.202Z,505.00
2023-05-19T05:41:01.162Z,506.00
2023-05-19T05:42:01.181Z,503.00
2023-05-19T05:43:01.136Z,507.00
2023-05-19T05:44:01.150Z,500.00
2023-05-19T05:45:01.152Z,504.00
2023-05-19T05:46:01.191Z,506.00
2023-05-19T05:47:01.119Z,511.00
2023-05-19T05:48:01.423Z,508.00
2023-05-19T05:49:01.124Z,508.00
2023-05-19T05:50:01.117Z,506.00
2023-05-19T05:51:01.112Z,513.00
2023-05-19T05:52:06.203Z,509.00
2023-05-19T05:53:01.096Z,509.00
2023-05-19T05:54:01.083Z,509.00
2023-05-19T05:55:01.065Z,510.00
2023-05-19T05:56:01.051Z,507.00
2023-05-19T05:57:01.055Z,505.00
2023-05-19T05:58:01.054Z,500.00
2023-05-19T05:59:01.044Z,503.00
2023-05-19T06:00:01.032Z,500.00
2023-05-19T06:01:01.034Z,506.00
2023-05-19T06:02:01.057Z,503.00
2023-05-19T06:03:01.128Z,506.00
2023-05-19T06:04:01.007Z,510.00
2023-05-19T06:05:01.004Z,505.00
2023-05-19T06:06:01.062Z,505.00
2023-05-19T06:07:00.949Z,500.00
2023-05-19T06:08:00.888Z,505.00
2023-05-19T06:09:00.859Z,502.00
2023-05-19T06:10:00.863Z,500.00
2023-05-19T06:11:00.835Z,512.00
2023-05-19T06:12:00.800Z,515.00
2023-05-19T06:13:00.784Z,515.00
2023-05-19T06:14:00.763Z,514.00
2023-05-19T06:15:00.755Z,509.00
2023-05-19T06:16:02.011Z,507.00
2023-05-19T06:17:00.771Z,513.00
2023-05-19T06:18:00.793Z,506.00
2023-05-19T06:19:00.775Z,505.00
2023-05-19T06:20:01.786Z,503.00
2023-05-19T06:21:00.738Z,501.00
2023-05-19T06:22:00.724Z,505.00
2023-05-19T06:23:00.713Z,512.00
2023-05-19T06:24:00.705Z,514.00
2023-05-19T06:25:00.717Z,503.00
2023-05-19T06:26:00.687Z,500.00
2023-05-19T06:27:00.673Z,513.00
2023-05-19T06:28:00.666Z,507.00
2023-05-19T06:29:00.649Z,506.00
2023-05-19T06:30:00.654Z,512.00
2023-05-19T06:31:00.701Z,508.00
2023-05-19T06:32:00.626Z,506.00
2023-05-19T06:33:00.663Z,500.00
2023-05-19T06:34:00.635Z,500.00
2023-05-19T06:35:00.602Z,500.00
2023-05-19T06:36:00.629Z,504.00
2023-05-19T06:37:00.574Z,511.00
2023-05-19T06:38:00.589Z,503.00
2023-05-19T06:39:02.533Z,513.00
2023-05-19T06:40:00.521Z,517.00
2023-05-19T06:41:00.508Z,520.00
2023-05-19T06:42:00.516Z,515.00
2023-05-19T06:43:00.497Z,514.00
2023-05-19T06:44:00.434Z,520.00
2023-05-19T06:45:00.419Z,514.00
2023-05-19T06:46:00.403Z,505.00
2023-05-19T06:47:00.419Z,510.00
2023-05-19T06:48:00.439Z,515.00
2023-05-19T06:49:00.352Z,504.00
2023-05-19T06:50:00.332Z,501.00
2023-05-19T06:51:00.319Z,505.00
2023-05-19T06:52:00.325Z,516.00
2023-05-19T06:53:00.278Z,513.00
2023-05-19T06:54:00.263Z,507.00
2023-05-19T06:55:00.275Z,504.00
2023-05-19T06:56:00.560Z,503.00
2023-05-19T06:57:00.219Z,500.00
2023-05-19T06:58:00.203Z,500.00
2023-05-19T06:59:00.200Z,500.00
2023-05-19T07:00:00.199Z,500.00
2023-05-19T07:01:00.177Z,502.00
2023-05-19T07:02:00.260Z,500.00
2023-05-19T07:03:00.332Z,503.00
2023-05-19T07:04:00.286Z,500.00
2023-05-19T07:05:00.179Z,507.00
2023-05-19T07:06:00.137Z,500.00
2023-05-19T07:07:00.139Z,500.00
2023-05-19T07:08:00.193Z,500.00
2023-05-19T07:09:00.130Z,500.00
2023-05-19T07:10:00.107Z,501.00
2023-05-19T07:11:00.123Z,505.00
2023-05-19T07:12:00.081Z,502.00
2023-05-19T07:13:00.078Z,506.00
2023-05-19T07:14:00.051Z,500.00
2023-05-19T07:15:00.050Z,512.00
2023-05-19T07:16:00.100Z,501.00
2023-05-19T07:17:00.016Z,500.00
2023-05-19T07:18:00.030Z,504.00
2023-05-19T07:19:00.064Z,507.00
2023-05-19T07:19:59.984Z,505.00
2023-05-19T07:20:59.987Z,501.00
2023-05-19T07:21:59.974Z,500.00
2023-05-19T07:22:59.957Z,508.00
2023-05-19T07:23:59.989Z,500.00
2023-05-19T07:24:59.929Z,502.00
2023-05-19T07:25:59.924Z,502.00
2023-05-19T07:26:59.922Z,511.00
2023-05-19T07:27:59.920Z,514.00
2023-05-19T07:28:59.899Z,523.00
2023-05-19T07:29:59.886Z,512.00
2023-05-19T07:30:59.888Z,501.00
2023-05-19T07:31:59.914Z,508.00
2023-05-19T07:32:59.901Z,503.00
2023-05-19T07:33:59.859Z,502.00
2023-05-19T07:34:59.857Z,510.00
2023-05-19T07:35:59.845Z,510.00
2023-05-19T07:36:59.837Z,508.00
2023-05-19T07:37:59.836Z,505.00
2023-05-19T07:38:59.850Z,505.00
2023-05-19T07:39:59.948Z,507.00
2023-05-19T07:40:59.804Z,500.00
2023-05-19T07:41:59.788Z,504.00
2023-05-19T07:42:59.782Z,509.00
2023-05-19T07:43:59.768Z,506.00
2023-05-19T07:44:59.762Z,503.00
2023-05-19T07:45:59.782Z,505.00
2023-05-19T07:46:59.765Z,502.00
2023-05-19T07:47:59.758Z,500.00
2023-05-19T07:48:59.721Z,504.00
2023-05-19T07:49:59.704Z,500.00
2023-05-19T07:50:59.689Z,511.00
2023-05-19T07:51:59.679Z,519.00
2023-05-19T07:52:59.698Z,505.00
2023-05-19T07:53:59.663Z,500.00
2023-05-19T07:54:59.649Z,501.00
2023-05-19T07:55:59.677Z,510.00
2023-05-19T07:56:59.625Z,500.00
2023-05-19T07:57:59.608Z,500.00
2023-05-19T07:58:59.607Z,506.00
2023-05-19T07:59:59.573Z,502.00
2023-05-19T08:00:59.600Z,503.00
2023-05-19T08:01:59.564Z,504.00
2023-05-19T08:02:59.613Z,502.00
2023-05-19T08:03:59.797Z,503.00
2023-05-19T08:04:59.511Z,501.00
2023-05-19T08:05:59.494Z,506.00
2023-05-19T08:06:59.496Z,501.00
2023-05-19T08:07:59.504Z,513.00
2023-05-19T08:08:59.469Z,512.00
2023-05-19T08:09:59.458Z,519.00
2023-05-19T08:10:59.441Z,514.00
2023-05-19T08:11:59.464Z,512.00
2023-05-19T08:12:59.418Z,505.00
2023-05-19T08:13:59.412Z,511.00
2023-05-19T08:15:01.394Z,509.00
2023-05-19T08:15:59.453Z,510.00
2023-05-19T08:16:59.374Z,504.00
2023-05-19T08:17:59.396Z,508.00
2023-05-19T08:18:59.389Z,504.00
2023-05-19T08:19:59.326Z,502.00
2023-05-19T08:20:59.315Z,506.00
2023-05-19T08:21:59.304Z,504.00
2023-05-19T08:22:59.302Z,509.00
2023-05-19T08:23:59.303Z,500.00
2023-05-19T08:24:59.281Z,508.00
2023-05-19T08:25:59.273Z,500.00
2023-05-19T08:26:59.247Z,500.00
2023-05-19T08:27:59.249Z,500.00
2023-05-19T08:28:59.230Z,509.00
2023-05-19T08:29:59.207Z,500.00
2023-05-19T08:30:59.204Z,506.00
2023-05-19T08:31:59.199Z,510.00
2023-05-19T08:32:59.237Z,513.00
2023-05-19T08:33:59.164Z,511.00
2023-05-19T08:34:59.141Z,511.00
2023-05-19T08:35:59.133Z,512.00
2023-05-19T08:36:59.113Z,506.00
2023-05-19T08:37:59.099Z,502.00
2023-05-19T08:38:59.113Z,501.00
2023-05-19T08:39:59.076Z,502.00
2023-05-19T08:40:59.064Z,500.00
2023-05-19T08:41:59.045Z,500.00
2023-05-19T08:42:59.031Z,500.00
2023-05-19T08:43:59.044Z,501.00
2023-05-19T08:44:59.001Z,506.00
2023-05-19T08:45:58.984Z,501.00
2023-05-19T08:46:59.028Z,500.00
2023-05-19T08:47:59.046Z,512.00
2023-05-19T08:48:58.931Z,511.00
2023-05-19T08:49:58.925Z,512.00
2023-05-19T08:50:58.912Z,500.00
2023-05-19T08:51:58.889Z,510.00
2023-05-19T08:52:58.892Z,503.00
2023-05-19T08:53:58.867Z,512.00
2023-05-19T08:54:58.853Z,519.00
2023-05-19T08:55:58.851Z,509.00
2023-05-19T08:56:58.821Z,518.00
2023-05-19T08:57:58.816Z,516.00
2023-05-19T09:00:03.793Z,500.00
2023-05-19T09:01:04.786Z,500.00
2023-05-19T09:02:04.753Z,500.00
2023-05-19T09:04:03.890Z,500.00
2023-05-19T09:05:04.861Z,506.00
2023-05-19T09:06:04.851Z,502.00
2023-05-19T09:07:04.913Z,506.00
2023-05-19T09:08:04.881Z,505.00
2023-05-19T09:09:04.865Z,511.00
2023-05-19T09:10:04.871Z,507.00
2023-05-19T09:11:04.883Z,511.00
2023-05-19T09:12:04.909Z,510.00
2023-05-19T09:13:04.908Z,503.00
2023-05-19T09:14:04.921Z,500.00
2023-05-19T09:15:04.930Z,503.00
2023-05-19T09:16:05.065Z,502.00
2023-05-19T09:17:04.988Z,506.00
2023-05-19T09:18:04.982Z,500.00
2023-05-19T09:19:05.031Z,518.00
2023-05-19T09:20:05.006Z,518.00
2023-05-19T09:21:05.012Z,515.00
2023-05-19T09:22:05.044Z,511.00
2023-05-19T09:23:05.038Z,513.00
2023-05-19T09:24:05.062Z,506.00
2023-05-19T09:25:05.146Z,511.00
2023-05-19T09:26:05.070Z,507.00
2023-05-19T09:27:05.449Z,512.00
2023-05-19T09:28:05.092Z,511.00
2023-05-19T09:29:05.133Z,519.00
2023-05-19T09:30:05.128Z,513.00
2023-05-19T09:31:05.136Z,515.00
2023-05-19T09:32:05.336Z,510.00
2023-05-19T09:33:05.159Z,508.00
2023-05-19T09:34:05.162Z,505.00
2023-05-19T09:35:05.182Z,504.00
2023-05-19T09:36:05.182Z,501.00
2023-05-19T09:37:05.201Z,502.00
2023-05-19T09:38:05.194Z,507.00
2023-05-19T09:39:05.206Z,500.00
2023-05-19T09:40:05.235Z,511.00
2023-05-19T09:41:05.216Z,506.00
2023-05-19T09:42:05.226Z,508.00
2023-05-19T09:43:05.239Z,502.00
2023-05-19T09:44:05.239Z,502.00
2023-05-19T09:45:05.264Z,501.00
2023-05-19T09:46:05.313Z,505.00
2023-05-19T09:47:05.272Z,512.00
2023-05-19T09:48:05.455Z,510.00
2023-05-19T09:49:05.294Z,503.00
2023-05-19T09:50:05.312Z,510.00
2023-05-19T09:51:05.360Z,507.00
2023-05-19T09:52:05.317Z,507.00
2023-05-19T09:53:05.318Z,503.00
2023-05-19T09:54:05.345Z,518.00
2023-05-19T09:55:05.375Z,510.00
2023-05-19T09:56:05.363Z,524.00
2023-05-19T09:57:07.744Z,526.00
2023-05-19T09:58:05.352Z,526.00
2023-05-19T09:59:05.356Z,523.00
2023-05-19T10:00:05.350Z,534.00
2023-05-19T10:01:05.863Z,545.00
2023-05-19T10:02:05.358Z,567.00
2023-05-19T10:03:05.384Z,552.00
2023-05-19T10:04:06.162Z,551.00
2023-05-19T10:05:05.379Z,566.00
2023-05-19T10:06:05.327Z,593.00
2023-05-19T10:07:05.333Z,575.00
2023-05-19T10:08:05.318Z,588.00
2023-05-19T10:09:05.294Z,591.00
2023-05-19T10:10:05.295Z,568.00
2023-05-19T10:11:05.305Z,570.00
2023-05-19T10:12:05.298Z,582.00
2023-05-19T10:13:05.296Z,579.00
2023-05-19T10:14:05.296Z,592.00
2023-05-19T10:15:05.305Z,585.00
2023-05-19T10:16:05.315Z,567.00
2023-05-19T10:17:05.438Z,562.00
2023-05-19T10:18:05.353Z,558.00
2023-05-19T10:19:05.538Z,555.00
2023-05-19T10:20:05.340Z,587.00
2023-05-19T10:21:05.310Z,596.00
2023-05-19T10:22:05.329Z,567.00
2023-05-19T10:23:05.369Z,575.00
2023-05-19T10:24:05.414Z,571.00
2023-05-19T10:25:05.465Z,573.00
2023-05-19T10:26:05.529Z,589.00
2023-05-19T10:27:05.616Z,600.00
2023-05-19T10:28:05.633Z,588.00
2023-05-19T10:29:05.683Z,618.00
2023-05-19T10:30:05.723Z,588.00
2023-05-19T10:31:05.763Z,568.00
2023-05-19T10:32:05.952Z,554.00
2023-05-19T10:33:05.973Z,578.00
2023-05-19T10:34:05.985Z,581.00
2023-05-19T10:35:06.053Z,587.00
2023-05-19T10:36:06.206Z,583.00
2023-05-19T10:37:06.205Z,573.00
2023-05-19T10:38:06.255Z,560.00
2023-05-19T10:39:06.354Z,553.00
2023-05-19T10:40:06.397Z,554.00
2023-05-19T10:41:06.459Z,554.00
2023-05-19T10:42:06.530Z,538.00
2023-05-19T10:43:06.609Z,535.00
2023-05-19T10:44:06.647Z,539.00
2023-05-19T10:45:06.720Z,533.00
2023-05-19T10:46:06.773Z,539.00
2023-05-19T10:47:06.925Z,542.00
2023-05-19T10:48:06.886Z,551.00
2023-05-19T10:49:06.915Z,556.00
2023-05-19T10:50:07.011Z,559.00
2023-05-19T10:51:07.027Z,546.00
2023-05-19T10:52:07.151Z,561.00
2023-05-19T10:53:07.113Z,574.00
2023-05-19T10:54:07.168Z,561.00
2023-05-19T10:55:07.223Z,560.00
2023-05-19T10:56:07.280Z,541.00
2023-05-19T10:57:07.336Z,574.00
2023-05-19T10:58:07.415Z,577.00
2023-05-19T10:59:07.456Z,576.00
2023-05-19T11:00:07.509Z,590.00
2023-05-19T11:01:07.574Z,588.00
2023-05-19T11:02:07.958Z,577.00
2023-05-19T11:03:07.919Z,582.00
2023-05-19T11:04:07.857Z,593.00
2023-05-19T11:05:07.754Z,589.00
2023-05-19T11:06:07.767Z,577.00
2023-05-19T11:07:07.834Z,578.00
2023-05-19T11:08:07.895Z,588.00
2023-05-19T11:09:07.894Z,602.00
2023-05-19T11:10:07.901Z,610.00
2023-05-19T11:11:07.946Z,615.00
2023-05-19T11:12:08.077Z,613.00
2023-05-19T11:13:08.084Z,626.00
2023-05-19T11:14:08.137Z,615.00
2023-05-19T11:15:08.186Z,597.00
2023-05-19T11:16:08.269Z,587.00
2023-05-19T11:17:08.344Z,621.00
2023-05-19T11:18:08.398Z,597.00
2023-05-19T11:19:08.408Z,580.00
2023-05-19T11:20:08.434Z,576.00
2023-05-19T11:21:08.559Z,576.00
2023-05-19T11:22:08.554Z,582.00
2023-05-19T11:23:09.805Z,594.00
2023-05-19T11:24:08.672Z,581.00
2023-05-19T11:25:08.747Z,580.00
2023-05-19T11:26:08.824Z,582.00
2023-05-19T11:27:08.900Z,592.00
2023-05-19T11:28:08.944Z,580.00
2023-05-19T11:29:08.993Z,575.00
2023-05-19T11:30:09.042Z,557.00
2023-05-19T11:31:09.066Z,555.00
2023-05-19T11:32:09.152Z,566.00
2023-05-19T11:33:09.257Z,577.00
2023-05-19T11:34:09.212Z,589.00
2023-05-19T11:35:09.268Z,585.00
2023-05-19T11:36:09.326Z,587.00
2023-05-19T11:37:09.400Z,581.00
2023-05-19T11:38:09.452Z,561.00
2023-05-19T11:39:09.559Z,550.00
2023-05-19T11:40:09.614Z,550.00
2023-05-19T11:41:09.581Z,559.00
2023-05-19T11:42:09.650Z,586.00
2023-05-19T11:43:09.719Z,588.00
2023-05-19T11:44:09.745Z,579.00
2023-05-19T11:45:09.785Z,577.00
2023-05-19T11:46:09.875Z,577.00
2023-05-19T11:47:09.854Z,586.00
2023-05-19T11:48:09.902Z,560.00
2023-05-19T11:49:09.941Z,545.00
2023-05-19T11:50:09.951Z,563.00
2023-05-19T11:51:09.981Z,561.00
2023-05-19T11:52:09.996Z,559.00
2023-05-19T11:53:10.010Z,559.00
2023-05-19T11:54:10.057Z,561.00
2023-05-19T11:55:10.139Z,564.00
2023-05-19T11:56:10.098Z,571.00
2023-05-19T11:57:10.126Z,564.00
2023-05-19T11:58:10.125Z,561.00
2023-05-19T11:59:10.152Z,551.00
2023-05-19T12:00:10.200Z,551.00
2023-05-19T12:01:10.223Z,553.00
2023-05-19T12:02:10.276Z,545.00
2023-05-19T12:03:10.691Z,546.00
2023-05-19T12:04:10.296Z,544.00
2023-05-19T12:05:10.388Z,532.00
2023-05-19T12:06:10.421Z,549.00
2023-05-19T12:07:10.437Z,530.00
2023-05-19T12:08:10.495Z,540.00
2023-05-19T12:09:10.503Z,558.00
2023-05-19T12:10:10.749Z,557.00
2023-05-19T12:11:10.630Z,567.00
2023-05-19T12:12:10.652Z,577.00
2023-05-19T12:13:11.033Z,559.00
2023-05-19T12:14:10.740Z,555.00
2023-05-19T12:15:10.778Z,551.00
2023-05-19T12:16:10.859Z,549.00
2023-05-19T12:17:10.855Z,546.00
2023-05-19T12:18:10.956Z,549.00
2023-05-19T12:19:10.978Z,540.00
2023-05-19T12:20:11.010Z,544.00
2023-05-19T12:21:11.050Z,553.00
2023-05-19T12:22:11.068Z,560.00
2023-05-19T12:23:11.162Z,549.00
2023-05-19T12:24:11.225Z,559.00
2023-05-19T12:25:11.280Z,552.00
2023-05-19T12:26:11.300Z,557.00
2023-05-19T12:27:11.386Z,551.00
2023-05-19T12:28:11.379Z,553.00
2023-05-19T12:29:11.419Z,546.00
2023-05-19T12:30:11.437Z,552.00
2023-05-19T12:31:11.595Z,548.00